Terminal Aerodrome Forecast
Issued by NWS Blacksburg, VA

Home | Current Version | Previous Version | Text Only | Print | Product List | Glossary On
Versions: 1 2 3 4 5 6 7 8 9 10 11 12 13 14 15
000
FTUS41 KRNK 311723
TAFDAN
TAF
KDAN 311723Z 3118/0118 06005KT P6SM OVC045
     FM010100 04003KT P6SM -RA OVC040
     FM010900 04008KT 4SM -RA BR OVC018
     FM011300 02011KT P6SM OVC025=

USA.gov is the U.S. government's official web portal to all federal, state and local government web resources and services.